Swindon, United Kingdom
Current Conditions -  °F | °C
As of 8:38 AM on Tuesday 21 Oct 2014 (Local Time) from EGVA Reporting Station
Light Rain Light Rain  
Wind Chill: 54°   Ceiling: 2800
Heat Index: 54°   Visibility: 6mi
Dew Point: 46°   Wind: 18mph
Humidity: 77%   Direction: 290°WNW
Pressure: 29.59"   Gusts: 37mph
Location:  51.56°N, 1.77°W
Report Text: EGVA 210738Z AUTO 29016G32KT 9999 -RA BKN028 BKN035 OVC045 12/08 A2959 RMK AO2 CIG 028V035 BKN028 V SCT PRESRR
Loading
Personal Weather Stations






























Interactive Weather Map
Tropical Storm Tracking
New forecast layout! Learn more

10-Day Weather Forecast

Advertisements
Track Severe Weather on mobile